BBC Delaware — V2CN9 — position and weather

sailwx.info

Track history (hours):
 
Tides and Currents Weather Stations Pressure Air Temp Water Temp Dewpoint Dewpoint Depression Visibility Wind Speed Wind Dir Waves Ship Positions

BBC Delaware

Last reported at 2017-Jul-29 06:58 UTC. Time now 2017-Aug-18 10:50 UTC.
Position N 08°59' W 079°35'.
Warning: this ship's position is 20 days out of date.

Length 138 m; draft 8.3 m.

Type: Ship. MMSI: 305057000.

Date/timePositionNaut miles runAvg speedWind from/ knotsBaromVisibWave heightAir tempDewpointWater temp
2017-Jul-29 06:58N 08°59' W 079°35'2 1.5
2017-Jul-29 05:19N 09°01' W 079°37'22 5.4
2017-Jul-29 01:16N 09°13' W 079°55'3 9.5
2017-Jul-29 00:59N 09°16' W 079°55'1 1.4
2017-Jul-29 00:30N 09°16' W 079°55'1 0.6
2017-Jul-28 23:27N 09°17' W 079°55'1 2.2
2017-Jul-28 23:00N 09°18' W 079°55'3 5.6
2017-Jul-28 22:30N 09°21' W 079°55'2 3.6
2017-Jul-28 21:57N 09°22' W 079°55'0 0.0
2017-Jul-28 21:27N 09°22' W 079°55'0 0.0
2017-Jul-28 21:00N 09°22' W 079°55'0 0.0
2017-Jul-28 20:28N 09°22' W 079°55'0 0.0
2017-Jul-28 20:00N 09°22' W 079°55'0 0.1
2017-Jul-28 19:30N 09°22' W 079°55'0 0.1
2017-Jul-28 19:00N 09°22' W 079°55'0 0.0
2017-Jul-28 18:26N 09°22' W 079°55'0 0.2
2017-Jul-28 18:00N 09°22' W 079°55'0 0.0
2017-Jul-28 17:30N 09°22' W 079°55'0 0.1
2017-Jul-28 16:56N 09°22' W 079°55'0 0.0
2017-Jul-28 16:30N 09°22' W 079°55'0 0.0
2017-Jul-28 15:59N 09°22' W 079°55'0 0.0
2017-Jul-28 15:29N 09°22' W 079°55'0 0.0
2017-Jul-28 14:59N 09°22' W 079°55'0 0.1
2017-Jul-28 14:29N 09°22' W 079°55'0 0.1
2017-Jul-28 13:59N 09°22' W 079°55'0 0.6
2017-Jul-28 13:30N 09°23' W 079°55'3 6.6
2017-Jul-28 13:00N 09°26' W 079°55'6 7.6
2017-Jul-28 12:10N 09°32' W 079°53'  
Track history (hours):
 
Tides and Currents Weather Stations Pressure Air Temp Water Temp Dewpoint Dewpoint Depression Visibility Wind Speed Wind Dir Waves Ship Positions

BBC Delaware

Last reported at 2017-Jul-29 06:58 UTC. Time now 2017-Aug-18 10:50 UTC.
Position N 08°59' W 079°35'.
Warning: this ship's position is 20 days out of date.

Length 138 m; draft 8.3 m.

Type: Ship. MMSI: 305057000.

Date/timePositionNaut miles runAvg speedWind from/ knotsBaromVisibWave heightAir tempDewpointWater temp
2017-Jul-29 06:58N 08°59' W 079°35'2 1.5
2017-Jul-29 05:19N 09°01' W 079°37'22 5.4
2017-Jul-29 01:16N 09°13' W 079°55'3 9.5
2017-Jul-29 00:59N 09°16' W 079°55'1 1.4
2017-Jul-29 00:30N 09°16' W 079°55'1 0.6
2017-Jul-28 23:27N 09°17' W 079°55'1 2.2
2017-Jul-28 23:00N 09°18' W 079°55'3 5.6
2017-Jul-28 22:30N 09°21' W 079°55'2 3.6
2017-Jul-28 21:57N 09°22' W 079°55'0 0.0
2017-Jul-28 21:27N 09°22' W 079°55'0 0.0
2017-Jul-28 21:00N 09°22' W 079°55'0 0.0
2017-Jul-28 20:28N 09°22' W 079°55'0 0.0
2017-Jul-28 20:00N 09°22' W 079°55'0 0.1
2017-Jul-28 19:30N 09°22' W 079°55'0 0.1
2017-Jul-28 19:00N 09°22' W 079°55'0 0.0
2017-Jul-28 18:26N 09°22' W 079°55'0 0.2
2017-Jul-28 18:00N 09°22' W 079°55'0 0.0
2017-Jul-28 17:30N 09°22' W 079°55'0 0.1
2017-Jul-28 16:56N 09°22' W 079°55'0 0.0
2017-Jul-28 16:30N 09°22' W 079°55'0 0.0
2017-Jul-28 15:59N 09°22' W 079°55'0 0.0
2017-Jul-28 15:29N 09°22' W 079°55'0 0.0
2017-Jul-28 14:59N 09°22' W 079°55'0 0.1
2017-Jul-28 14:29N 09°22' W 079°55'0 0.1
2017-Jul-28 13:59N 09°22' W 079°55'0 0.6
2017-Jul-28 13:30N 09°23' W 079°55'3 6.6
2017-Jul-28 13:00N 09°26' W 079°55'6 7.6
2017-Jul-28 12:10N 09°32' W 079°53'  

Dump ship's entire track history